Tupper Lake, New York
Current Conditions -  °F | °C
As of 11:51 AM on Friday 31 Oct 2014 (Local Time) from KSLK Reporting Station
Few Clouds Few Clouds  
Wind Chill: 41°   Ceiling: Unl
Heat Index: 41°   Visibility: 10mi
Dew Point: 28°   Wind: 3mph
Humidity: 60%   Direction: 110°ESE
Pressure: 29.98"   Gusts: NA
Location:  44.22°N, 74.46°W
Report Text: KSLK 311551Z AUTO 11003KT 10SM FEW025 05/M02 A2998 RMK AO2 SLP165 T00501022 $
Loading
Personal Weather Stations






























Interactive Weather Map
Tropical Storm Tracking
New forecast layout! Learn more

10-Day Weather Forecast

Advertisements
Track Severe Weather on mobile